Главная страница
METAR-TAF:

METAR-TAF

Аэропорты :

Вааса, Финляндия

широта: 63-03N, долгота: 021-46E, высота над уровнем моря: 4 м

Текущие метеонаблюдения

Эта сводка был подготовлена 15 минут назад, в 15:20 UTC
Ветер 9 Узел от северный, изменяющийся между северо-западный и северо-северо-восточный
Температура 20°C
Влажность 43%
Давление 1011 hPa
Видимость 10 км и более
Нет облачности ниже 1500 м, и нет кучево-дождевой облачности

METAR: EFVA 221520Z AUTO 35009KT 320V030 CAVOK 20/07 Q1011

Время: 18:35 (15:35 UTC)

Прогноз

Эта сводка был подготовлена 1 час и 9 минут назад, в 14:26 UTC
Прогноз действительный с 22-го 15 UTC до 23-го 15 UTC
Ветер 7 Узел от северный
Видимость 10 км и более
Нет облачности ниже 1500 м, и нет кучево-дождевой облачности

TAF: EFVA 221426Z 2215/2315 36007KT CAVOK

Метеонаблюдения и прогнозы для более 4000 аэропортов (сводки METAR и TAF).

Имеющиеся станции представлены на карте желтыми и красными точками.

Чтобы увидеть название станции, наведите на нее мышь.

Затем щелкните, чтобы увидеть метеонаблюдения и метеопрогнозы.

Управление картой: чтобы увеличить масштаб, щелкните зеленые кнопки с черным крестиком; чтобы уменьшить масштаб, щелкните зеленую кнопку с тире; для просмотра соседних карт щелкайте зеленые стрелки.


METAR-TAF: